createdAt,value
2019-04-05T00:16:22.984Z,97509.06
2019-04-05T00:21:28.946Z,97509.21
2019-04-05T00:26:34.381Z,97509.55
2019-04-05T00:31:39.710Z,97503.54
2019-04-05T00:36:45.084Z,97504.42
2019-04-05T00:41:50.465Z,97509.97
2019-04-05T00:46:55.737Z,97521.69
2019-04-05T00:52:00.924Z,97520.16
2019-04-05T00:57:06.122Z,97520.61
2019-04-05T01:02:11.363Z,97513.28
2019-04-05T01:07:16.810Z,97507.02
2019-04-05T01:12:24.722Z,97504.57
2019-04-05T01:17:30.351Z,97509.84
2019-04-05T01:22:36.651Z,97508.41
2019-04-05T01:27:42.450Z,97507.32
2019-04-05T01:32:47.917Z,97505.62
2019-04-05T01:37:54.036Z,97511.53
2019-04-05T01:42:59.556Z,97515.70
2019-04-05T01:48:04.902Z,97514.23
2019-04-05T01:53:10.261Z,97511.61
2019-04-05T01:58:15.674Z,97518.00
2019-04-05T02:03:20.821Z,97514.42
2019-04-05T02:08:26.316Z,97517.39
2019-04-05T02:13:31.466Z,97519.13
2019-04-05T02:18:36.722Z,97514.12
2019-04-05T02:23:42.006Z,97522.33
2019-04-05T02:28:47.556Z,97525.45
2019-04-05T02:33:52.997Z,97529.36
2019-04-05T02:38:58.238Z,97537.33
2019-04-05T02:44:03.809Z,97529.88
2019-04-05T02:49:09.975Z,97532.45
2019-04-05T02:54:16.796Z,97532.02
2019-04-05T02:59:22.367Z,97526.75
2019-04-05T03:04:27.851Z,97530.41
2019-04-05T03:09:33.351Z,97530.84
2019-04-05T03:14:39.322Z,97536.31
2019-04-05T03:19:46.579Z,97546.00
2019-04-05T03:24:52.283Z,97550.64
2019-04-05T03:29:57.918Z,97545.47
2019-04-05T03:35:03.837Z,97547.98
2019-04-05T03:40:09.137Z,97550.70
2019-04-05T03:45:14.594Z,97553.73
2019-04-05T03:50:20.058Z,97563.48
2019-04-05T03:55:25.340Z,97560.56
2019-04-05T04:00:31.051Z,97560.94
2019-04-05T04:05:36.270Z,97556.55
2019-04-05T04:10:41.625Z,97571.41
2019-04-05T04:15:47.150Z,97584.58
2019-04-05T04:20:55.065Z,97597.57
2019-04-05T04:26:02.281Z,97598.54
2019-04-05T04:31:07.998Z,97601.23
2019-04-05T04:36:13.429Z,97599.34
2019-04-05T04:41:19.099Z,97602.52
2019-04-05T04:46:24.647Z,97603.17
2019-04-05T04:51:30.212Z,97601.78
2019-04-05T04:56:35.567Z,97603.64
2019-04-05T05:01:40.955Z,97608.36
2019-04-05T05:06:46.311Z,97612.00
2019-04-05T05:11:51.825Z,97612.51
2019-04-05T05:16:57.336Z,97620.89
2019-04-05T05:22:02.762Z,97634.77
2019-04-05T05:27:08.096Z,97639.95
2019-04-05T05:32:13.656Z,97653.23
2019-04-05T05:37:20.275Z,97658.16
2019-04-05T05:42:25.551Z,97669.81
2019-04-05T05:47:30.712Z,97669.16
2019-04-05T05:52:36.712Z,97668.23
2019-04-05T05:57:41.861Z,97676.56
2019-04-05T06:02:48.402Z,97675.45
2019-04-05T06:07:53.973Z,97674.66
2019-04-05T06:12:59.186Z,97668.61
2019-04-05T06:18:05.227Z,97670.08
2019-04-05T06:23:10.636Z,97660.66
2019-04-05T06:28:15.897Z,97672.11
2019-04-05T06:33:31.423Z,97666.83
2019-04-05T06:38:29.246Z,97677.96
2019-04-05T06:43:34.539Z,97676.95
2019-04-05T06:48:39.862Z,97685.74
2019-04-05T06:53:45.101Z,97700.65
2019-04-05T06:58:50.289Z,97725.95
2019-04-05T07:03:55.733Z,97728.14
2019-04-05T07:09:01.086Z,97734.44
2019-04-05T07:14:06.377Z,97739.95
2019-04-05T07:19:11.783Z,97748.23
2019-04-05T07:24:19.989Z,97759.97
2019-04-05T07:29:25.431Z,97764.31
2019-04-05T07:34:30.716Z,97757.66
2019-04-05T07:39:36.162Z,97749.45
2019-04-05T07:44:41.534Z,97753.92
2019-04-05T07:49:46.718Z,97768.73
2019-04-05T07:54:53.436Z,97764.61
2019-04-05T07:59:58.635Z,97766.14
2019-04-05T08:05:06.352Z,97767.87
2019-04-05T08:10:12.706Z,97769.84
2019-04-05T08:15:18.251Z,97773.22
2019-04-05T08:20:25.341Z,97799.03
2019-04-05T08:25:31.073Z,97796.97
2019-04-05T08:30:37.086Z,97794.59
2019-04-05T08:35:42.492Z,97802.47
2019-04-05T08:40:47.752Z,97801.81
2019-04-05T08:45:52.973Z,97796.04
2019-04-05T08:50:58.316Z,97804.66
2019-04-05T08:56:03.835Z,97818.16
2019-04-05T09:01:09.453Z,97821.37
2019-04-05T09:06:14.977Z,97825.86
2019-04-05T09:11:21.250Z,97831.83
2019-04-05T09:16:26.411Z,97828.70
2019-04-05T09:21:32.006Z,97841.11
2019-04-05T09:26:37.270Z,97848.78
2019-04-05T09:31:42.711Z,97853.81
2019-04-05T09:36:49.160Z,97859.73
2019-04-05T09:41:54.284Z,97860.32
2019-04-05T09:46:59.570Z,97860.88
2019-04-05T09:52:04.806Z,97859.15
2019-04-05T09:57:10.063Z,97862.08
2019-04-05T10:02:15.262Z,97862.34
2019-04-05T10:07:20.561Z,97865.71
2019-04-05T10:12:26.000Z,97877.53
2019-04-05T10:17:31.289Z,97874.61
2019-04-05T10:22:36.894Z,97876.80
2019-04-05T10:27:42.218Z,97876.58
2019-04-05T10:32:47.623Z,97885.86
2019-04-05T10:37:53.921Z,97889.41
2019-04-05T10:42:59.092Z,97893.95
2019-04-05T10:48:04.657Z,97897.66
2019-04-05T10:53:10.027Z,97888.02
2019-04-05T10:58:15.382Z,97897.73
2019-04-05T11:03:20.529Z,97899.46
2019-04-05T11:08:25.822Z,97895.17
2019-04-05T11:13:31.216Z,97899.88
2019-04-05T11:18:36.513Z,97903.42
2019-04-05T11:23:41.820Z,97904.55
2019-04-05T11:28:47.149Z,97912.68
2019-04-05T11:33:52.652Z,97902.85
2019-04-05T11:38:58.238Z,97895.33
2019-04-05T11:44:06.597Z,97906.34
2019-04-05T11:49:13.713Z,97907.23
2019-04-05T11:54:19.087Z,97902.44
2019-04-05T11:59:24.268Z,97912.61
2019-04-05T12:04:30.222Z,97918.64
2019-04-05T12:09:35.623Z,97904.52
2019-04-05T12:14:41.430Z,97920.58
2019-04-05T12:19:47.103Z,97932.41
2019-04-05T12:24:52.446Z,97926.78
2019-04-05T12:29:57.784Z,97937.75
2019-04-05T12:35:03.262Z,97934.06
2019-04-05T12:40:10.389Z,97929.79
2019-04-05T12:45:16.265Z,97961.55
2019-04-05T12:50:21.563Z,97953.29
2019-04-05T12:55:26.998Z,97952.03
2019-04-05T13:05:51.179Z,97946.95
2019-04-05T13:11:02.017Z,97944.49
2019-04-05T13:16:09.800Z,97946.46
2019-04-05T13:21:15.437Z,97937.76
2019-04-05T13:26:21.184Z,97943.87
2019-04-05T13:31:26.600Z,97936.95
2019-04-05T13:36:32.243Z,97928.42
2019-04-05T13:41:37.726Z,97930.92
2019-04-05T13:46:46.053Z,97933.95
2019-04-05T13:51:51.283Z,97942.34
2019-04-05T13:56:56.750Z,97927.50
2019-04-05T14:02:06.181Z,97943.03
2019-04-05T14:07:09.762Z,97950.63
2019-04-05T14:12:15.073Z,97951.37
2019-04-05T14:17:20.623Z,97938.34
2019-04-05T14:22:25.950Z,97946.00
2019-04-05T14:27:34.918Z,97963.12
2019-04-05T14:32:38.304Z,97951.84
2019-04-05T14:37:43.805Z,97961.41
2019-04-05T14:42:51.987Z,97963.74
2019-04-05T14:47:58.528Z,97955.32
2019-04-05T14:53:04.364Z,97958.81
2019-04-05T14:58:10.724Z,97953.33
2019-04-05T15:03:17.704Z,97955.72
2019-04-05T15:08:23.048Z,97952.80
2019-04-05T15:13:28.844Z,97944.60
2019-04-05T15:18:34.677Z,97960.00
2019-04-05T15:23:41.371Z,97957.86
2019-04-05T15:28:47.046Z,97948.81
2019-04-05T15:33:55.634Z,97957.52
2019-04-05T15:39:02.375Z,97966.92
2019-04-05T15:44:07.961Z,97963.71
2019-04-05T15:49:13.249Z,97961.08
2019-04-05T15:54:18.637Z,97969.75
2019-04-05T15:59:27.003Z,97982.73
2019-04-05T16:04:32.363Z,97972.73
2019-04-05T16:09:38.063Z,97962.28
2019-04-05T16:14:43.418Z,97975.79
2019-04-05T16:19:48.856Z,97993.66
2019-04-05T16:24:54.262Z,97984.05
2019-04-05T16:29:59.682Z,97992.97
2019-04-05T16:35:05.350Z,97993.45
2019-04-05T16:40:11.504Z,97976.36
2019-04-05T16:45:20.223Z,98002.28
2019-04-05T16:50:25.643Z,98018.81
2019-04-05T16:55:31.423Z,98015.60
2019-04-05T17:00:36.789Z,98014.64
2019-04-05T17:05:42.048Z,98011.10
2019-04-05T17:10:47.518Z,98008.42
2019-04-05T17:15:55.318Z,98008.54
2019-04-05T17:21:00.663Z,98018.77
2019-04-05T17:26:06.118Z,98022.48
2019-04-05T17:31:11.540Z,98035.56
2019-04-05T17:36:16.980Z,98026.69
2019-04-05T17:41:22.524Z,98032.25
2019-04-05T17:46:27.819Z,98035.08
2019-04-05T17:51:36.382Z,98034.63
2019-04-05T17:56:41.884Z,98031.75
2019-04-05T18:01:47.497Z,98036.86
2019-04-05T18:06:53.044Z,98040.18
2019-04-05T18:11:58.327Z,98052.81
2019-04-05T18:17:03.971Z,98050.81
2019-04-05T18:22:10.923Z,98050.89
2019-04-05T18:27:16.578Z,98053.80
2019-04-05T18:32:23.162Z,98061.56
2019-04-05T18:37:28.749Z,98063.38
2019-04-05T18:42:34.103Z,98066.56
2019-04-05T18:47:39.598Z,98072.34
2019-04-05T18:52:45.223Z,98071.88
2019-04-05T18:57:50.650Z,98078.07
2019-04-05T19:02:56.103Z,98082.49
2019-04-05T19:08:01.404Z,98084.11
2019-04-05T19:13:06.883Z,98081.23
2019-04-05T19:18:13.648Z,98090.77
2019-04-05T19:23:19.345Z,98094.06
2019-04-05T19:28:26.003Z,98094.06
2019-04-05T19:48:52.739Z,98124.45
2019-04-05T19:54:01.438Z,98130.98
2019-04-05T19:59:06.634Z,98144.57
2019-04-05T20:04:11.942Z,98131.39
2019-04-05T20:09:17.918Z,98134.80
2019-04-05T20:14:23.709Z,98135.98
2019-04-05T20:19:29.200Z,98133.73
2019-04-05T20:24:34.699Z,98141.91
2019-04-05T20:29:40.078Z,98146.75
2019-04-05T20:34:48.315Z,98153.75
2019-04-05T20:39:53.724Z,98153.75
2019-04-05T20:44:59.501Z,98156.42
2019-04-05T20:50:05.902Z,98159.28
2019-04-05T20:55:13.402Z,98176.28
2019-04-05T21:00:22.064Z,98173.33
2019-04-05T21:05:27.503Z,98170.21
2019-04-05T21:10:32.744Z,98170.21
2019-04-05T21:15:38.070Z,98178.74
2019-04-05T21:20:43.294Z,98180.83
2019-04-05T21:25:48.604Z,98191.31
2019-04-05T21:30:53.944Z,98183.66
2019-04-05T21:35:59.377Z,98177.80
2019-04-05T21:41:04.785Z,98177.49
2019-04-05T21:46:12.650Z,98174.12
2019-04-05T21:51:18.070Z,98169.36
2019-04-05T21:56:23.503Z,98177.73
2019-04-05T22:01:28.923Z,98185.98
2019-04-05T22:06:37.490Z,98188.88
2019-04-05T22:11:42.949Z,98200.48
2019-04-05T22:16:48.326Z,98200.70
2019-04-05T22:21:54.208Z,98203.50
2019-04-05T22:26:59.508Z,98209.80
2019-04-05T22:32:04.689Z,98205.80
2019-04-05T22:37:10.050Z,98209.55
2019-04-05T22:42:15.404Z,98211.75
2019-04-05T22:47:20.582Z,98218.86
2019-04-05T22:52:25.724Z,98228.77
2019-04-05T22:57:31.050Z,98228.14
2019-04-05T23:02:36.281Z,98233.20
2019-04-05T23:07:41.539Z,98244.12
2019-04-05T23:12:46.879Z,98242.34
2019-04-05T23:17:52.292Z,98239.55
2019-04-05T23:22:57.474Z,98237.08
2019-04-05T23:28:02.824Z,98238.23
2019-04-05T23:33:08.184Z,98241.13
2019-04-05T23:38:13.474Z,98241.39
2019-04-05T23:43:18.690Z,98248.84
2019-04-05T23:48:24.309Z,98247.84
2019-04-05T23:53:29.635Z,98251.17
2019-04-05T23:58:34.883Z,98241.78
